sensor_id;sensor_type;location;lat;lon;timestamp;temperature;humidity
6102;DHT22;3081;50.584;7.032;2022-08-19T00:01:26;19.80;98.40
6102;DHT22;3081;50.584;7.032;2022-08-19T00:03:55;19.80;98.50
6102;DHT22;3081;50.584;7.032;2022-08-19T00:06:22;19.80;98.90
6102;DHT22;3081;50.584;7.032;2022-08-19T00:08:50;19.80;99.10
6102;DHT22;3081;50.584;7.032;2022-08-19T00:11:18;19.80;99.00
6102;DHT22;3081;50.584;7.032;2022-08-19T00:13:46;19.80;98.90
6102;DHT22;3081;50.584;7.032;2022-08-19T00:16:14;19.80;99.00
6102;DHT22;3081;50.584;7.032;2022-08-19T00:18:41;19.80;99.40
6102;DHT22;3081;50.584;7.032;2022-08-19T00:21:08;19.80;99.10
6102;DHT22;3081;50.584;7.032;2022-08-19T00:23:35;19.80;99.00
6102;DHT22;3081;50.584;7.032;2022-08-19T00:26:04;19.80;99.20
6102;DHT22;3081;50.584;7.032;2022-08-19T00:28:31;19.70;99.70
6102;DHT22;3081;50.584;7.032;2022-08-19T00:30:59;19.60;99.90
6102;DHT22;3081;50.584;7.032;2022-08-19T00:33:27;19.50;99.90
6102;DHT22;3081;50.584;7.032;2022-08-19T00:35:55;19.40;99.90
6102;DHT22;3081;50.584;7.032;2022-08-19T00:38:22;19.40;99.90
6102;DHT22;3081;50.584;7.032;2022-08-19T00:40:49;19.40;99.90
6102;DHT22;3081;50.584;7.032;2022-08-19T00:43:21;19.40;99.90
6102;DHT22;3081;50.584;7.032;2022-08-19T00:45:48;19.40;99.90
6102;DHT22;3081;50.584;7.032;2022-08-19T00:48:15;19.40;99.90
6102;DHT22;3081;50.584;7.032;2022-08-19T00:50:43;19.40;99.90
6102;DHT22;3081;50.584;7.032;2022-08-19T00:53:12;19.40;99.90
6102;DHT22;3081;50.584;7.032;2022-08-19T00:55:42;19.40;99.90
6102;DHT22;3081;50.584;7.032;2022-08-19T00:58:15;19.40;99.90
6102;DHT22;3081;50.584;7.032;2022-08-19T01:00:44;19.40;99.90
6102;DHT22;3081;50.584;7.032;2022-08-19T01:03:19;19.50;99.90
6102;DHT22;3081;50.584;7.032;2022-08-19T01:05:47;19.40;99.90
6102;DHT22;3081;50.584;7.032;2022-08-19T01:08:16;19.50;99.90
6102;DHT22;3081;50.584;7.032;2022-08-19T01:10:46;19.40;99.90
6102;DHT22;3081;50.584;7.032;2022-08-19T01:13:15;19.40;99.90
6102;DHT22;3081;50.584;7.032;2022-08-19T01:15:46;19.30;99.90
6102;DHT22;3081;50.584;7.032;2022-08-19T01:18:17;19.30;99.90
6102;DHT22;3081;50.584;7.032;2022-08-19T01:20:44;19.20;99.90
6102;DHT22;3081;50.584;7.032;2022-08-19T01:23:14;19.20;99.90
6102;DHT22;3081;50.584;7.032;2022-08-19T01:25:43;19.20;99.90
6102;DHT22;3081;50.584;7.032;2022-08-19T01:28:16;19.20;99.90
6102;DHT22;3081;50.584;7.032;2022-08-19T01:30:44;19.10;99.90
6102;DHT22;3081;50.584;7.032;2022-08-19T01:33:11;19.10;99.90
6102;DHT22;3081;50.584;7.032;2022-08-19T01:35:39;19.10;99.90
6102;DHT22;3081;50.584;7.032;2022-08-19T01:38:08;19.10;99.90
6102;DHT22;3081;50.584;7.032;2022-08-19T01:40:38;19.20;99.90
6102;DHT22;3081;50.584;7.032;2022-08-19T01:43:08;19.20;99.90
6102;DHT22;3081;50.584;7.032;2022-08-19T01:45:36;19.30;99.90
6102;DHT22;3081;50.584;7.032;2022-08-19T01:48:06;19.30;99.90
6102;DHT22;3081;50.584;7.032;2022-08-19T01:50:33;19.30;99.90
6102;DHT22;3081;50.584;7.032;2022-08-19T01:53:03;19.30;99.90
6102;DHT22;3081;50.584;7.032;2022-08-19T01:55:30;19.30;99.90
6102;DHT22;3081;50.584;7.032;2022-08-19T01:58:00;19.20;99.90
6102;DHT22;3081;50.584;7.032;2022-08-19T02:00:30;19.20;99.90
6102;DHT22;3081;50.584;7.032;2022-08-19T02:02:58;19.10;99.90
6102;DHT22;3081;50.584;7.032;2022-08-19T02:05:27;18.90;99.90
6102;DHT22;3081;50.584;7.032;2022-08-19T02:07:55;18.80;99.90
6102;DHT22;3081;50.584;7.032;2022-08-19T02:10:22;18.80;99.90
6102;DHT22;3081;50.584;7.032;2022-08-19T02:12:50;18.80;99.90
6102;DHT22;3081;50.584;7.032;2022-08-19T02:15:19;18.70;99.90
6102;DHT22;3081;50.584;7.032;2022-08-19T02:17:47;18.80;99.90
6102;DHT22;3081;50.584;7.032;2022-08-19T02:20:15;18.70;99.90
6102;DHT22;3081;50.584;7.032;2022-08-19T02:22:43;18.60;99.90
6102;DHT22;3081;50.584;7.032;2022-08-19T02:25:11;18.60;99.90
6102;DHT22;3081;50.584;7.032;2022-08-19T02:27:38;18.60;99.90
6102;DHT22;3081;50.584;7.032;2022-08-19T02:30:08;18.60;99.90
6102;DHT22;3081;50.584;7.032;2022-08-19T02:32:37;18.60;99.90
6102;DHT22;3081;50.584;7.032;2022-08-19T02:35:05;18.60;99.90
6102;DHT22;3081;50.584;7.032;2022-08-19T02:37:32;18.70;99.90
6102;DHT22;3081;50.584;7.032;2022-08-19T02:40:17;18.70;99.90
6102;DHT22;3081;50.584;7.032;2022-08-19T02:42:44;18.70;99.90
6102;DHT22;3081;50.584;7.032;2022-08-19T02:45:11;18.70;99.90
6102;DHT22;3081;50.584;7.032;2022-08-19T02:47:40;18.60;99.90
6102;DHT22;3081;50.584;7.032;2022-08-19T02:50:08;18.60;99.90
6102;DHT22;3081;50.584;7.032;2022-08-19T02:52:35;18.50;99.90
6102;DHT22;3081;50.584;7.032;2022-08-19T02:55:04;18.40;99.90
6102;DHT22;3081;50.584;7.032;2022-08-19T02:57:31;18.30;99.90
6102;DHT22;3081;50.584;7.032;2022-08-19T02:59:59;18.30;99.90
6102;DHT22;3081;50.584;7.032;2022-08-19T03:02:26;18.30;99.90
6102;DHT22;3081;50.584;7.032;2022-08-19T03:04:55;18.30;99.90
6102;DHT22;3081;50.584;7.032;2022-08-19T03:07:22;18.30;99.90
6102;DHT22;3081;50.584;7.032;2022-08-19T03:09:49;18.30;99.90
6102;DHT22;3081;50.584;7.032;2022-08-19T03:12:16;18.30;99.90
6102;DHT22;3081;50.584;7.032;2022-08-19T03:14:43;18.00;99.90
6102;DHT22;3081;50.584;7.032;2022-08-19T03:17:12;18.20;99.90
6102;DHT22;3081;50.584;7.032;2022-08-19T03:19:39;18.10;99.90
6102;DHT22;3081;50.584;7.032;2022-08-19T03:22:07;18.10;99.90
6102;DHT22;3081;50.584;7.032;2022-08-19T03:24:35;18.10;99.90
6102;DHT22;3081;50.584;7.032;2022-08-19T03:27:02;18.10;99.90
6102;DHT22;3081;50.584;7.032;2022-08-19T03:29:31;18.00;99.90
6102;DHT22;3081;50.584;7.032;2022-08-19T03:31:59;17.90;99.90
6102;DHT22;3081;50.584;7.032;2022-08-19T03:34:30;17.90;99.90
6102;DHT22;3081;50.584;7.032;2022-08-19T03:36:58;17.90;99.90
6102;DHT22;3081;50.584;7.032;2022-08-19T03:39:28;17.90;99.90
6102;DHT22;3081;50.584;7.032;2022-08-19T03:41:55;18.00;99.90
6102;DHT22;3081;50.584;7.032;2022-08-19T03:44:25;18.00;99.90
6102;DHT22;3081;50.584;7.032;2022-08-19T03:46:55;18.00;99.90
6102;DHT22;3081;50.584;7.032;2022-08-19T03:49:23;18.00;99.90
6102;DHT22;3081;50.584;7.032;2022-08-19T03:51:50;18.00;99.90
6102;DHT22;3081;50.584;7.032;2022-08-19T03:54:19;18.00;99.90
6102;DHT22;3081;50.584;7.032;2022-08-19T03:56:51;18.00;99.90
6102;DHT22;3081;50.584;7.032;2022-08-19T03:59:23;18.10;99.90
6102;DHT22;3081;50.584;7.032;2022-08-19T04:01:51;18.10;99.90
6102;DHT22;3081;50.584;7.032;2022-08-19T04:04:18;18.10;99.90
6102;DHT22;3081;50.584;7.032;2022-08-19T04:06:45;18.20;99.90
6102;DHT22;3081;50.584;7.032;2022-08-19T04:09:13;18.20;99.90
6102;DHT22;3081;50.584;7.032;2022-08-19T04:11:42;18.20;99.90
6102;DHT22;3081;50.584;7.032;2022-08-19T04:14:12;18.30;99.90
6102;DHT22;3081;50.584;7.032;2022-08-19T04:16:40;18.30;99.90
6102;DHT22;3081;50.584;7.032;2022-08-19T04:19:08;18.30;99.90
6102;DHT22;3081;50.584;7.032;2022-08-19T04:21:35;18.40;99.90
6102;DHT22;3081;50.584;7.032;2022-08-19T04:24:03;18.40;99.90
6102;DHT22;3081;50.584;7.032;2022-08-19T04:26:33;18.40;99.90
6102;DHT22;3081;50.584;7.032;2022-08-19T04:29:01;18.40;99.90
6102;DHT22;3081;50.584;7.032;2022-08-19T04:31:31;18.40;99.90
6102;DHT22;3081;50.584;7.032;2022-08-19T04:34:02;18.40;99.90
6102;DHT22;3081;50.584;7.032;2022-08-19T04:36:31;18.30;99.90
6102;DHT22;3081;50.584;7.032;2022-08-19T04:39:02;18.30;99.90
6102;DHT22;3081;50.584;7.032;2022-08-19T04:41:29;18.30;99.90
6102;DHT22;3081;50.584;7.032;2022-08-19T04:44:14;18.30;99.90
6102;DHT22;3081;50.584;7.032;2022-08-19T04:46:45;18.30;99.90
6102;DHT22;3081;50.584;7.032;2022-08-19T04:49:12;18.30;99.90
6102;DHT22;3081;50.584;7.032;2022-08-19T04:51:41;18.30;99.90
6102;DHT22;3081;50.584;7.032;2022-08-19T04:54:09;18.50;99.90
6102;DHT22;3081;50.584;7.032;2022-08-19T04:56:36;18.40;99.90
6102;DHT22;3081;50.584;7.032;2022-08-19T04:59:03;18.40;99.90
6102;DHT22;3081;50.584;7.032;2022-08-19T05:01:31;18.50;99.90
6102;DHT22;3081;50.584;7.032;2022-08-19T05:04:01;18.50;99.90
6102;DHT22;3081;50.584;7.032;2022-08-19T05:06:30;18.50;99.90
6102;DHT22;3081;50.584;7.032;2022-08-19T05:08:59;18.50;99.90
6102;DHT22;3081;50.584;7.032;2022-08-19T05:11:29;18.60;99.90
6102;DHT22;3081;50.584;7.032;2022-08-19T05:13:57;18.60;99.90
6102;DHT22;3081;50.584;7.032;2022-08-19T05:16:25;18.60;99.90
6102;DHT22;3081;50.584;7.032;2022-08-19T05:18:52;18.60;99.90
6102;DHT22;3081;50.584;7.032;2022-08-19T05:21:39;18.60;99.90
6102;DHT22;3081;50.584;7.032;2022-08-19T05:24:25;18.60;99.90
6102;DHT22;3081;50.584;7.032;2022-08-19T05:26:53;18.70;99.90
6102;DHT22;3081;50.584;7.032;2022-08-19T05:29:23;18.70;99.90
6102;DHT22;3081;50.584;7.032;2022-08-19T05:31:51;18.70;99.90
6102;DHT22;3081;50.584;7.032;2022-08-19T05:34:19;18.70;99.90
6102;DHT22;3081;50.584;7.032;2022-08-19T05:36:49;18.70;99.90
6102;DHT22;3081;50.584;7.032;2022-08-19T05:39:19;18.80;99.90
6102;DHT22;3081;50.584;7.032;2022-08-19T05:41:48;18.90;99.90
6102;DHT22;3081;50.584;7.032;2022-08-19T05:44:16;18.90;99.90
6102;DHT22;3081;50.584;7.032;2022-08-19T05:46:44;18.90;99.90
6102;DHT22;3081;50.584;7.032;2022-08-19T05:49:13;19.00;99.90
6102;DHT22;3081;50.584;7.032;2022-08-19T05:51:41;19.00;99.90
6102;DHT22;3081;50.584;7.032;2022-08-19T05:54:10;19.00;99.90
6102;DHT22;3081;50.584;7.032;2022-08-19T05:56:39;19.10;99.90
6102;DHT22;3081;50.584;7.032;2022-08-19T05:59:07;19.10;99.90
6102;DHT22;3081;50.584;7.032;2022-08-19T06:01:35;19.10;99.90
6102;DHT22;3081;50.584;7.032;2022-08-19T06:04:03;19.20;99.90
6102;DHT22;3081;50.584;7.032;2022-08-19T06:06:30;19.20;99.90
6102;DHT22;3081;50.584;7.032;2022-08-19T06:08:59;19.30;99.90
6102;DHT22;3081;50.584;7.032;2022-08-19T06:11:35;19.30;99.90
6102;DHT22;3081;50.584;7.032;2022-08-19T06:14:04;19.30;99.90
6102;DHT22;3081;50.584;7.032;2022-08-19T06:16:34;19.30;99.90
6102;DHT22;3081;50.584;7.032;2022-08-19T06:19:03;19.40;99.90
6102;DHT22;3081;50.584;7.032;2022-08-19T06:21:33;19.40;99.90
6102;DHT22;3081;50.584;7.032;2022-08-19T06:24:00;19.40;99.90
6102;DHT22;3081;50.584;7.032;2022-08-19T06:26:27;19.40;99.90
6102;DHT22;3081;50.584;7.032;2022-08-19T06:28:56;19.50;99.90
6102;DHT22;3081;50.584;7.032;2022-08-19T06:31:25;19.50;99.90
6102;DHT22;3081;50.584;7.032;2022-08-19T06:33:53;19.50;99.90
6102;DHT22;3081;50.584;7.032;2022-08-19T06:36:21;19.60;99.90
6102;DHT22;3081;50.584;7.032;2022-08-19T06:38:53;19.70;99.90
6102;DHT22;3081;50.584;7.032;2022-08-19T06:41:20;19.80;99.90
6102;DHT22;3081;50.584;7.032;2022-08-19T06:43:47;19.80;99.90
6102;DHT22;3081;50.584;7.032;2022-08-19T06:46:17;19.80;99.90
6102;DHT22;3081;50.584;7.032;2022-08-19T06:48:45;19.90;99.90
6102;DHT22;3081;50.584;7.032;2022-08-19T06:51:13;19.90;99.90
6102;DHT22;3081;50.584;7.032;2022-08-19T06:53:41;20.00;99.90
6102;DHT22;3081;50.584;7.032;2022-08-19T06:56:11;20.00;99.90
6102;DHT22;3081;50.584;7.032;2022-08-19T06:58:38;20.10;99.90
6102;DHT22;3081;50.584;7.032;2022-08-19T07:01:06;20.20;99.90
6102;DHT22;3081;50.584;7.032;2022-08-19T07:03:36;20.30;99.90
6102;DHT22;3081;50.584;7.032;2022-08-19T07:06:05;20.30;99.90
6102;DHT22;3081;50.584;7.032;2022-08-19T07:08:32;20.50;99.90
6102;DHT22;3081;50.584;7.032;2022-08-19T07:10:59;20.50;99.90
6102;DHT22;3081;50.584;7.032;2022-08-19T07:13:26;20.60;99.90
6102;DHT22;3081;50.584;7.032;2022-08-19T07:15:53;20.70;99.90
6102;DHT22;3081;50.584;7.032;2022-08-19T07:18:20;20.90;99.90
6102;DHT22;3081;50.584;7.032;2022-08-19T07:20:49;21.00;99.90
6102;DHT22;3081;50.584;7.032;2022-08-19T07:23:16;21.20;99.90
6102;DHT22;3081;50.584;7.032;2022-08-19T07:25:44;21.30;99.90
6102;DHT22;3081;50.584;7.032;2022-08-19T07:28:11;21.40;99.90
6102;DHT22;3081;50.584;7.032;2022-08-19T07:30:38;21.60;99.90
6102;DHT22;3081;50.584;7.032;2022-08-19T07:33:06;21.70;99.90
6102;DHT22;3081;50.584;7.032;2022-08-19T07:35:33;21.90;99.90
6102;DHT22;3081;50.584;7.032;2022-08-19T07:38:02;21.90;99.90
6102;DHT22;3081;50.584;7.032;2022-08-19T07:40:30;22.10;99.90
6102;DHT22;3081;50.584;7.032;2022-08-19T07:42:57;22.10;99.90
6102;DHT22;3081;50.584;7.032;2022-08-19T07:45:24;22.20;99.90
6102;DHT22;3081;50.584;7.032;2022-08-19T07:47:52;22.20;99.90
6102;DHT22;3081;50.584;7.032;2022-08-19T07:50:20;22.30;99.90
6102;DHT22;3081;50.584;7.032;2022-08-19T07:52:48;22.40;99.90
6102;DHT22;3081;50.584;7.032;2022-08-19T07:55:25;22.60;99.90
6102;DHT22;3081;50.584;7.032;2022-08-19T07:57:52;23.00;99.90
6102;DHT22;3081;50.584;7.032;2022-08-19T08:00:19;23.20;99.90
6102;DHT22;3081;50.584;7.032;2022-08-19T08:02:46;23.40;99.90
6102;DHT22;3081;50.584;7.032;2022-08-19T08:05:13;23.60;99.90
6102;DHT22;3081;50.584;7.032;2022-08-19T08:07:59;23.80;99.90
6102;DHT22;3081;50.584;7.032;2022-08-19T08:10:45;23.80;99.90
6102;DHT22;3081;50.584;7.032;2022-08-19T08:13:12;24.00;99.90
6102;DHT22;3081;50.584;7.032;2022-08-19T08:15:39;24.10;99.90
6102;DHT22;3081;50.584;7.032;2022-08-19T08:18:06;24.10;99.90
6102;DHT22;3081;50.584;7.032;2022-08-19T08:20:33;23.90;99.90
6102;DHT22;3081;50.584;7.032;2022-08-19T08:23:00;23.70;99.90
6102;DHT22;3081;50.584;7.032;2022-08-19T08:25:46;23.70;99.90
6102;DHT22;3081;50.584;7.032;2022-08-19T08:28:13;24.00;99.90
6102;DHT22;3081;50.584;7.032;2022-08-19T08:30:41;24.40;99.90
6102;DHT22;3081;50.584;7.032;2022-08-19T08:33:09;24.70;99.90
6102;DHT22;3081;50.584;7.032;2022-08-19T08:35:36;24.90;99.90
6102;DHT22;3081;50.584;7.032;2022-08-19T08:38:04;25.10;99.40
6102;DHT22;3081;50.584;7.032;2022-08-19T08:40:39;25.20;98.50
6102;DHT22;3081;50.584;7.032;2022-08-19T08:43:19;25.30;98.20
6102;DHT22;3081;50.584;7.032;2022-08-19T08:45:52;25.30;97.20
6102;DHT22;3081;50.584;7.032;2022-08-19T08:48:24;25.00;97.50
6102;DHT22;3081;50.584;7.032;2022-08-19T08:50:54;25.00;97.90
6102;DHT22;3081;50.584;7.032;2022-08-19T08:53:23;25.10;96.20
6102;DHT22;3081;50.584;7.032;2022-08-19T08:55:50;24.90;96.90
6102;DHT22;3081;50.584;7.032;2022-08-19T08:58:26;24.90;96.80
6102;DHT22;3081;50.584;7.032;2022-08-19T09:00:56;25.10;95.60
6102;DHT22;3081;50.584;7.032;2022-08-19T09:03:26;25.40;95.10
6102;DHT22;3081;50.584;7.032;2022-08-19T09:05:59;25.60;94.90
6102;DHT22;3081;50.584;7.032;2022-08-19T09:08:36;25.80;94.70
6102;DHT22;3081;50.584;7.032;2022-08-19T09:11:08;26.20;93.50
6102;DHT22;3081;50.584;7.032;2022-08-19T09:13:44;26.80;93.30
6102;DHT22;3081;50.584;7.032;2022-08-19T09:16:16;27.90;91.70
6102;DHT22;3081;50.584;7.032;2022-08-19T09:18:45;29.00;89.90
6102;DHT22;3081;50.584;7.032;2022-08-19T09:21:13;30.20;83.20
6102;DHT22;3081;50.584;7.032;2022-08-19T09:23:41;31.00;78.30
6102;DHT22;3081;50.584;7.032;2022-08-19T09:26:09;31.30;75.60
6102;DHT22;3081;50.584;7.032;2022-08-19T09:28:40;31.40;73.30
6102;DHT22;3081;50.584;7.032;2022-08-19T09:31:09;31.90;70.10
6102;DHT22;3081;50.584;7.032;2022-08-19T09:33:36;32.30;68.00
6102;DHT22;3081;50.584;7.032;2022-08-19T09:36:06;32.70;66.50
6102;DHT22;3081;50.584;7.032;2022-08-19T09:38:33;33.10;65.50
6102;DHT22;3081;50.584;7.032;2022-08-19T09:41:04;33.60;63.00
6102;DHT22;3081;50.584;7.032;2022-08-19T09:43:31;33.90;60.40
6102;DHT22;3081;50.584;7.032;2022-08-19T09:46:00;33.80;58.30
6102;DHT22;3081;50.584;7.032;2022-08-19T09:48:27;32.80;60.40
6102;DHT22;3081;50.584;7.032;2022-08-19T09:50:54;32.80;61.50
6102;DHT22;3081;50.584;7.032;2022-08-19T09:53:21;33.50;60.00
6102;DHT22;3081;50.584;7.032;2022-08-19T09:55:48;33.30;59.00
6102;DHT22;3081;50.584;7.032;2022-08-19T09:58:16;33.00;59.50
6102;DHT22;3081;50.584;7.032;2022-08-19T10:00:43;33.20;58.70
6102;DHT22;3081;50.584;7.032;2022-08-19T10:03:12;33.60;57.90
6102;DHT22;3081;50.584;7.032;2022-08-19T10:05:39;34.10;57.50
6102;DHT22;3081;50.584;7.032;2022-08-19T10:08:17;34.40;56.10
6102;DHT22;3081;50.584;7.032;2022-08-19T10:10:44;34.60;55.80
6102;DHT22;3081;50.584;7.032;2022-08-19T10:13:12;35.10;54.70
6102;DHT22;3081;50.584;7.032;2022-08-19T10:15:39;35.30;53.70
6102;DHT22;3081;50.584;7.032;2022-08-19T10:18:07;35.30;53.60
6102;DHT22;3081;50.584;7.032;2022-08-19T10:20:35;35.20;53.70
6102;DHT22;3081;50.584;7.032;2022-08-19T10:23:03;35.40;52.70
6102;DHT22;3081;50.584;7.032;2022-08-19T10:25:29;35.70;52.60
6102;DHT22;3081;50.584;7.032;2022-08-19T10:27:59;36.10;52.30
6102;DHT22;3081;50.584;7.032;2022-08-19T10:30:26;36.60;51.20
6102;DHT22;3081;50.584;7.032;2022-08-19T10:32:55;36.10;50.80
6102;DHT22;3081;50.584;7.032;2022-08-19T10:35:22;35.40;51.70
6102;DHT22;3081;50.584;7.032;2022-08-19T10:37:50;34.60;52.40
6102;DHT22;3081;50.584;7.032;2022-08-19T10:40:17;34.10;53.90
6102;DHT22;3081;50.584;7.032;2022-08-19T10:42:44;34.00;53.70
6102;DHT22;3081;50.584;7.032;2022-08-19T10:45:11;33.30;54.30
6102;DHT22;3081;50.584;7.032;2022-08-19T10:47:38;33.20;55.30
6102;DHT22;3081;50.584;7.032;2022-08-19T10:50:06;33.70;54.50
6102;DHT22;3081;50.584;7.032;2022-08-19T10:52:52;34.50;52.80
6102;DHT22;3081;50.584;7.032;2022-08-19T10:55:22;35.20;51.10
6102;DHT22;3081;50.584;7.032;2022-08-19T10:58:12;35.90;50.70
6102;DHT22;3081;50.584;7.032;2022-08-19T11:00:39;35.60;50.00
6102;DHT22;3081;50.584;7.032;2022-08-19T11:03:07;35.70;50.30
6102;DHT22;3081;50.584;7.032;2022-08-19T11:05:34;36.50;49.30
6102;DHT22;3081;50.584;7.032;2022-08-19T11:08:04;37.20;49.30
6102;DHT22;3081;50.584;7.032;2022-08-19T11:10:32;37.20;47.30
6102;DHT22;3081;50.584;7.032;2022-08-19T11:12:59;36.90;47.70
6102;DHT22;3081;50.584;7.032;2022-08-19T11:15:26;36.60;47.80
6102;DHT22;3081;50.584;7.032;2022-08-19T11:17:54;36.80;47.30
6102;DHT22;3081;50.584;7.032;2022-08-19T11:20:21;36.20;46.90
6102;DHT22;3081;50.584;7.032;2022-08-19T11:22:51;35.60;47.60
6102;DHT22;3081;50.584;7.032;2022-08-19T11:25:20;35.80;48.20
6102;DHT22;3081;50.584;7.032;2022-08-19T11:27:47;35.50;48.00
6102;DHT22;3081;50.584;7.032;2022-08-19T11:30:16;35.50;48.70
6102;DHT22;3081;50.584;7.032;2022-08-19T11:32:43;36.10;47.50
6102;DHT22;3081;50.584;7.032;2022-08-19T11:35:10;36.80;47.00
6102;DHT22;3081;50.584;7.032;2022-08-19T11:37:37;37.20;46.50
6102;DHT22;3081;50.584;7.032;2022-08-19T11:40:06;37.20;46.00
6102;DHT22;3081;50.584;7.032;2022-08-19T11:42:35;37.10;46.30
6102;DHT22;3081;50.584;7.032;2022-08-19T11:45:19;37.20;45.90
6102;DHT22;3081;50.584;7.032;2022-08-19T11:47:46;37.70;44.90
6102;DHT22;3081;50.584;7.032;2022-08-19T11:50:14;38.00;44.20
6102;DHT22;3081;50.584;7.032;2022-08-19T11:52:41;37.90;44.70
6102;DHT22;3081;50.584;7.032;2022-08-19T11:55:10;38.10;44.10
6102;DHT22;3081;50.584;7.032;2022-08-19T11:57:38;37.20;44.50
6102;DHT22;3081;50.584;7.032;2022-08-19T12:00:07;36.30;46.30
6102;DHT22;3081;50.584;7.032;2022-08-19T12:02:36;36.10;48.10
6102;DHT22;3081;50.584;7.032;2022-08-19T12:05:03;36.70;46.00
6102;DHT22;3081;50.584;7.032;2022-08-19T12:07:31;36.00;46.50
6102;DHT22;3081;50.584;7.032;2022-08-19T12:09:58;35.90;47.70
6102;DHT22;3081;50.584;7.032;2022-08-19T12:12:26;35.60;48.40
6102;DHT22;3081;50.584;7.032;2022-08-19T12:14:55;35.90;48.00
6102;DHT22;3081;50.584;7.032;2022-08-19T12:17:24;36.50;47.20
6102;DHT22;3081;50.584;7.032;2022-08-19T12:19:52;37.20;46.60
6102;DHT22;3081;50.584;7.032;2022-08-19T12:22:19;37.50;45.60
6102;DHT22;3081;50.584;7.032;2022-08-19T12:24:47;36.80;45.70
6102;DHT22;3081;50.584;7.032;2022-08-19T12:27:15;35.50;48.30
6102;DHT22;3081;50.584;7.032;2022-08-19T12:29:42;35.00;49.70
6102;DHT22;3081;50.584;7.032;2022-08-19T12:32:11;35.50;49.60
6102;DHT22;3081;50.584;7.032;2022-08-19T12:34:38;36.40;47.90
6102;DHT22;3081;50.584;7.032;2022-08-19T12:37:05;36.70;46.90
6102;DHT22;3081;50.584;7.032;2022-08-19T12:39:38;36.90;47.00
6102;DHT22;3081;50.584;7.032;2022-08-19T12:42:05;37.40;46.80
6102;DHT22;3081;50.584;7.032;2022-08-19T12:44:34;37.60;46.30
6102;DHT22;3081;50.584;7.032;2022-08-19T12:47:01;37.70;45.80
6102;DHT22;3081;50.584;7.032;2022-08-19T12:49:32;37.60;45.80
6102;DHT22;3081;50.584;7.032;2022-08-19T12:52:00;37.50;46.50
6102;DHT22;3081;50.584;7.032;2022-08-19T12:54:27;37.60;45.90
6102;DHT22;3081;50.584;7.032;2022-08-19T12:56:56;37.30;46.40
6102;DHT22;3081;50.584;7.032;2022-08-19T12:59:23;37.40;46.80
6102;DHT22;3081;50.584;7.032;2022-08-19T13:01:51;38.00;45.80
6102;DHT22;3081;50.584;7.032;2022-08-19T13:04:18;38.70;44.90
6102;DHT22;3081;50.584;7.032;2022-08-19T13:06:46;39.20;44.20
6102;DHT22;3081;50.584;7.032;2022-08-19T13:09:13;39.20;43.60
6102;DHT22;3081;50.584;7.032;2022-08-19T13:11:40;39.10;43.30
6102;DHT22;3081;50.584;7.032;2022-08-19T13:14:09;39.30;43.20
6102;DHT22;3081;50.584;7.032;2022-08-19T13:16:36;38.80;42.70
6102;DHT22;3081;50.584;7.032;2022-08-19T13:19:04;38.40;43.90
6102;DHT22;3081;50.584;7.032;2022-08-19T13:21:31;38.90;43.40
6102;DHT22;3081;50.584;7.032;2022-08-19T13:23:59;39.10;42.10
6102;DHT22;3081;50.584;7.032;2022-08-19T13:26:26;37.90;42.70
6102;DHT22;3081;50.584;7.032;2022-08-19T13:28:53;37.70;43.50
6102;DHT22;3081;50.584;7.032;2022-08-19T13:31:40;38.20;43.10
6102;DHT22;3081;50.584;7.032;2022-08-19T13:34:32;39.40;41.10
6102;DHT22;3081;50.584;7.032;2022-08-19T13:37:02;40.20;40.80
6102;DHT22;3081;50.584;7.032;2022-08-19T13:39:31;40.90;39.30
6102;DHT22;3081;50.584;7.032;2022-08-19T13:41:59;41.00;38.30
6102;DHT22;3081;50.584;7.032;2022-08-19T13:44:27;41.10;38.80
6102;DHT22;3081;50.584;7.032;2022-08-19T13:47:00;41.60;37.90
6102;DHT22;3081;50.584;7.032;2022-08-19T13:49:31;42.00;37.10
6102;DHT22;3081;50.584;7.032;2022-08-19T13:51:58;42.20;36.70
6102;DHT22;3081;50.584;7.032;2022-08-19T13:54:25;42.20;36.60
6102;DHT22;3081;50.584;7.032;2022-08-19T13:56:53;42.60;36.10
6102;DHT22;3081;50.584;7.032;2022-08-19T13:59:21;42.70;35.40
6102;DHT22;3081;50.584;7.032;2022-08-19T14:01:48;42.50;35.90
6102;DHT22;3081;50.584;7.032;2022-08-19T14:04:15;42.70;35.50
6102;DHT22;3081;50.584;7.032;2022-08-19T14:06:42;42.90;35.20
6102;DHT22;3081;50.584;7.032;2022-08-19T14:09:09;43.30;34.70
6102;DHT22;3081;50.584;7.032;2022-08-19T14:11:39;42.70;35.30
6102;DHT22;3081;50.584;7.032;2022-08-19T14:14:07;42.50;35.80
6102;DHT22;3081;50.584;7.032;2022-08-19T14:16:34;42.80;36.40
6102;DHT22;3081;50.584;7.032;2022-08-19T14:19:01;43.40;35.50
6102;DHT22;3081;50.584;7.032;2022-08-19T14:21:28;43.80;35.00
6102;DHT22;3081;50.584;7.032;2022-08-19T14:23:55;44.60;34.40
6102;DHT22;3081;50.584;7.032;2022-08-19T14:26:23;44.90;33.30
6102;DHT22;3081;50.584;7.032;2022-08-19T14:28:50;45.10;33.90
6102;DHT22;3081;50.584;7.032;2022-08-19T14:31:19;45.50;33.20
6102;DHT22;3081;50.584;7.032;2022-08-19T14:33:49;46.10;32.80
6102;DHT22;3081;50.584;7.032;2022-08-19T14:36:16;46.20;32.40
6102;DHT22;3081;50.584;7.032;2022-08-19T14:38:43;44.10;33.30
6102;DHT22;3081;50.584;7.032;2022-08-19T14:41:13;43.90;34.50
6102;DHT22;3081;50.584;7.032;2022-08-19T14:43:42;43.30;34.50
6102;DHT22;3081;50.584;7.032;2022-08-19T14:46:11;42.60;35.10
6102;DHT22;3081;50.584;7.032;2022-08-19T14:48:40;42.50;36.20
6102;DHT22;3081;50.584;7.032;2022-08-19T14:51:07;43.90;35.10
6102;DHT22;3081;50.584;7.032;2022-08-19T14:53:34;44.90;33.80
6102;DHT22;3081;50.584;7.032;2022-08-19T14:56:01;45.20;33.10
6102;DHT22;3081;50.584;7.032;2022-08-19T14:58:28;45.50;33.40
6102;DHT22;3081;50.584;7.032;2022-08-19T15:00:57;46.40;32.90
6102;DHT22;3081;50.584;7.032;2022-08-19T15:03:24;45.90;31.90
6102;DHT22;3081;50.584;7.032;2022-08-19T15:05:52;43.60;33.50
6102;DHT22;3081;50.584;7.032;2022-08-19T15:08:19;40.60;36.40
6102;DHT22;3081;50.584;7.032;2022-08-19T15:10:50;38.40;39.60
6102;DHT22;3081;50.584;7.032;2022-08-19T15:13:17;37.90;40.60
6102;DHT22;3081;50.584;7.032;2022-08-19T15:15:44;38.40;41.20
6102;DHT22;3081;50.584;7.032;2022-08-19T15:18:12;39.30;39.10
6102;DHT22;3081;50.584;7.032;2022-08-19T15:20:39;39.10;39.40
6102;DHT22;3081;50.584;7.032;2022-08-19T15:23:10;39.60;39.20
6102;DHT22;3081;50.584;7.032;2022-08-19T15:25:37;39.70;39.30
6102;DHT22;3081;50.584;7.032;2022-08-19T15:28:04;41.50;37.40
6102;DHT22;3081;50.584;7.032;2022-08-19T15:30:31;41.50;36.90
6102;DHT22;3081;50.584;7.032;2022-08-19T15:32:59;41.70;37.00
6102;DHT22;3081;50.584;7.032;2022-08-19T15:35:27;42.20;36.70
6102;DHT22;3081;50.584;7.032;2022-08-19T15:37:55;43.90;35.40
6102;DHT22;3081;50.584;7.032;2022-08-19T15:40:26;45.80;33.40
6102;DHT22;3081;50.584;7.032;2022-08-19T15:42:53;47.00;32.30
6102;DHT22;3081;50.584;7.032;2022-08-19T15:45:21;47.40;31.60
6102;DHT22;3081;50.584;7.032;2022-08-19T15:47:48;47.20;31.70
6102;DHT22;3081;50.584;7.032;2022-08-19T15:50:17;47.10;31.50
6102;DHT22;3081;50.584;7.032;2022-08-19T15:52:47;46.50;32.30
6102;DHT22;3081;50.584;7.032;2022-08-19T15:55:14;46.30;32.40
6102;DHT22;3081;50.584;7.032;2022-08-19T15:57:42;45.60;33.00
6102;DHT22;3081;50.584;7.032;2022-08-19T16:00:27;45.60;33.90
6102;DHT22;3081;50.584;7.032;2022-08-19T16:03:13;46.70;32.80
6102;DHT22;3081;50.584;7.032;2022-08-19T16:05:58;47.90;31.90
6102;DHT22;3081;50.584;7.032;2022-08-19T16:08:42;48.30;31.50
6102;DHT22;3081;50.584;7.032;2022-08-19T16:11:10;48.80;30.90
6102;DHT22;3081;50.584;7.032;2022-08-19T16:13:39;48.70;30.70